Time;durP1;ratioP1;P1;durP2;ratioP2;P2;SDS_P1;SDS_P2;PMS_P1;PMS_P2;Temp;Humidity;BMP_temperature;BMP_pressure;BME280_temperature;BME280_humidity;BME280_pressure;Samples;Min_cycle;Max_cycle;Signal;HPM_P1;HPM_P2
2022/06/10 00:00:49;;;;;;;6.60;4.40;;;13.40;99.90;;;;;;4950441;28;20225;-74
2022/06/10 00:03:19;;;;;;;10.00;5.13;;;13.40;99.90;;;;;;4949722;28;20193;-75
2022/06/10 00:05:49;;;;;;;8.90;5.27;;;13.40;99.90;;;;;;4948400;28;20232;-72
2022/06/10 00:08:19;;;;;;;6.83;4.83;;;13.40;99.90;;;;;;4950693;28;20555;-75
2022/06/10 00:10:49;;;;;;;10.57;5.40;;;13.50;99.90;;;;;;4947305;28;20280;-73
2022/06/10 00:13:18;;;;;;;9.03;4.67;;;13.60;99.90;;;;;;4952000;28;20665;-74
2022/06/10 00:15:46;;;;;;;8.73;5.37;;;13.60;99.90;;;;;;4953488;28;20683;-76
2022/06/10 00:18:14;;;;;;;8.07;5.00;;;13.50;99.90;;;;;;4948879;28;20364;-75
2022/06/10 00:20:41;;;;;;;6.80;4.93;;;13.10;99.90;;;;;;4951214;28;20345;-74
2022/06/10 00:23:08;;;;;;;11.97;5.40;;;13.20;99.90;;;;;;4954322;28;20684;-73
2022/06/10 00:25:36;;;;;;;9.30;5.17;;;13.20;99.90;;;;;;4952505;28;20283;-74
2022/06/10 00:28:04;;;;;;;8.27;5.50;;;13.10;99.90;;;;;;4953440;28;20279;-74
2022/06/10 00:30:31;;;;;;;8.10;6.03;;;13.20;99.90;;;;;;4948404;28;20317;-74
2022/06/10 00:32:59;;;;;;;8.20;5.40;;;13.20;99.90;;;;;;4955359;28;20191;-76
2022/06/10 00:35:27;;;;;;;6.23;4.90;;;13.20;99.90;;;;;;4950719;28;20212;-74
2022/06/10 00:37:54;;;;;;;9.63;4.93;;;13.20;99.90;;;;;;4953881;28;20580;-75
2022/06/10 00:40:25;;;;;;;7.97;5.07;;;13.20;99.90;;;;;;4952039;28;20596;-76
2022/06/10 00:42:56;;;;;;;7.03;4.47;;;13.10;99.90;;;;;;4953806;28;20206;-72
2022/06/10 00:45:57;;;;;;;7.43;4.73;;;13.10;99.90;;;;;;4953525;28;20229;-77
2022/06/10 00:48:39;;;;;;;5.43;4.33;;;12.80;99.90;;;;;;4949797;29;20698;-75
2022/06/10 00:51:16;;;;;;;5.63;4.43;;;12.60;99.90;;;;;;4955259;28;20734;-74
2022/06/10 00:53:43;;;;;;;5.87;4.67;;;12.40;99.90;;;;;;4954525;28;20203;-74
2022/06/10 00:56:14;;;;;;;8.27;4.57;;;12.30;99.90;;;;;;4952835;28;20205;-74
2022/06/10 00:59:02;;;;;;;8.03;4.70;;;12.30;99.90;;;;;;4952878;28;20199;-74
2022/06/10 01:01:32;;;;;;;6.63;4.87;;;12.30;99.90;;;;;;4948837;28;20223;-74
2022/06/10 01:04:00;;;;;;;6.03;4.50;;;12.30;99.90;;;;;;4952892;28;20224;-74
2022/06/10 01:06:27;;;;;;;6.93;4.47;;;12.30;99.90;;;;;;4952979;28;20200;-74
2022/06/10 01:08:55;;;;;;;6.20;5.00;;;12.30;99.90;;;;;;4946893;28;20196;-76
2022/06/10 01:11:36;;;;;;;6.93;5.03;;;12.30;99.90;;;;;;4954297;28;20271;-75
2022/06/10 01:14:26;;;;;;;7.63;4.83;;;12.30;99.90;;;;;;4952537;28;20194;-78
2022/06/10 01:17:12;;;;;;;6.23;4.90;;;12.40;99.90;;;;;;4952420;29;20265;-75
2022/06/10 01:19:58;;;;;;;8.37;4.93;;;12.30;99.90;;;;;;4945772;28;20580;-75
2022/06/10 01:22:43;;;;;;;9.00;5.53;;;12.30;99.90;;;;;;4949070;28;20202;-74
2022/06/10 01:25:42;;;;;;;7.33;4.83;;;12.20;99.90;;;;;;4951322;28;20221;-75
2022/06/10 01:28:36;;;;;;;7.07;4.23;;;12.20;99.90;;;;;;4951468;28;20252;-76
2022/06/10 01:31:07;;;;;;;8.10;4.30;;;12.10;99.90;;;;;;4946687;28;20215;-76
2022/06/10 01:33:45;;;;;;;6.17;4.30;;;12.00;99.90;;;;;;4954156;28;20209;-75
2022/06/10 01:36:48;;;;;;;7.70;4.60;;;12.00;99.90;;;;;;4942767;28;20208;-74
2022/06/10 01:39:53;;;;;;;7.07;4.70;;;12.20;99.90;;;;;;4952116;28;20206;-74
2022/06/10 01:42:38;;;;;;;8.17;4.50;;;12.20;99.90;;;;;;4952721;28;20221;-76
2022/06/10 01:45:18;;;;;;;8.03;4.70;;;12.20;99.90;;;;;;4950843;29;20229;-74
2022/06/10 01:47:58;;;;;;;7.97;4.40;;;12.20;99.90;;;;;;4950465;28;20253;-75
2022/06/10 01:50:40;;;;;;;6.50;4.03;;;12.00;99.90;;;;;;4952685;28;20220;-74
2022/06/10 01:53:29;;;;;;;5.83;3.97;;;11.90;99.90;;;;;;4950598;28;20210;-75
2022/06/10 01:56:16;;;;;;;4.87;4.03;;;11.70;99.90;;;;;;4948693;28;20689;-76
2022/06/10 01:58:56;;;;;;;6.47;4.27;;;11.70;99.90;;;;;;4953404;29;20223;-76
2022/06/10 02:01:29;;;;;;;7.23;4.60;;;11.60;99.90;;;;;;4949393;28;20228;-75
2022/06/10 02:04:19;;;;;;;9.37;4.37;;;11.70;99.90;;;;;;4952480;28;20287;-76
2022/06/10 02:07:03;;;;;;;8.07;4.63;;;11.70;99.90;;;;;;4949428;28;20203;-75
2022/06/10 02:09:42;;;;;;;6.60;4.60;;;11.70;99.90;;;;;;4949483;28;20614;-75
2022/06/10 02:12:21;;;;;;;8.57;4.43;;;11.60;99.90;;;;;;4951424;28;20213;-75
2022/06/10 02:14:54;;;;;;;6.63;4.20;;;11.60;99.90;;;;;;4954574;28;20209;-76
2022/06/10 02:17:23;;;;;;;5.13;4.03;;;11.60;99.90;;;;;;4952864;29;20665;-74
2022/06/10 02:19:54;;;;;;;5.00;3.90;;;11.50;99.90;;;;;;4949771;28;20210;-73
2022/06/10 02:22:37;;;;;;;8.83;5.00;;;11.40;99.90;;;;;;4955100;28;20226;-75
2022/06/10 02:25:22;;;;;;;8.20;4.70;;;11.50;99.90;;;;;;4948943;28;20210;-76
2022/06/10 02:27:53;;;;;;;8.63;4.90;;;11.50;99.90;;;;;;4949826;29;20725;-76
2022/06/10 02:30:25;;;;;;;8.03;5.10;;;11.60;99.90;;;;;;4948947;28;20236;-74
2022/06/10 02:32:55;;;;;;;7.20;5.10;;;11.50;99.90;;;;;;4953994;28;20201;-76
2022/06/10 02:35:29;;;;;;;6.30;4.47;;;11.40;99.90;;;;;;4951729;28;20206;-76
2022/06/10 02:38:14;;;;;;;7.33;4.50;;;11.30;99.90;;;;;;4951431;28;20213;-75
2022/06/10 02:41:06;;;;;;;8.10;4.57;;;11.20;99.90;;;;;;4950419;28;20295;-78
2022/06/10 02:44:00;;;;;;;9.50;5.13;;;11.20;99.90;;;;;;4953821;28;20204;-80
2022/06/10 02:46:34;;;;;;;7.77;4.93;;;11.30;99.90;;;;;;4948932;28;20205;-75
2022/06/10 02:49:10;;;;;;;7.73;5.80;;;11.50;99.90;;;;;;4947897;28;20724;-76
2022/06/10 02:51:37;;;;;;;9.63;5.53;;;11.50;99.90;;;;;;4949674;28;20278;-73
2022/06/10 02:54:11;;;;;;;6.40;5.27;;;11.50;99.90;;;;;;4948103;28;20197;-75
2022/06/10 02:56:37;;;;;;;10.17;5.40;;;11.40;99.90;;;;;;4949169;28;20435;-75
2022/06/10 03:02:04;;;;;;;7.07;4.53;;;11.30;99.90;;;;;;4945363;28;20228;-77
2022/06/10 03:04:59;;;;;;;7.67;4.80;;;11.10;99.90;;;;;;4946275;28;20596;-75
2022/06/10 03:07:53;;;;;;;8.90;5.10;;;11.20;99.90;;;;;;4952192;29;20201;-75
2022/06/10 03:10:27;;;;;;;7.00;4.97;;;11.30;99.90;;;;;;4945783;28;20223;-75
2022/06/10 03:13:20;;;;;;;6.70;5.27;;;11.30;99.90;;;;;;4951933;28;20199;-76
2022/06/10 03:16:11;;;;;;;8.70;4.70;;;11.30;99.90;;;;;;4952810;28;20615;-74
2022/06/10 03:18:48;;;;;;;6.97;4.60;;;11.20;99.90;;;;;;4950118;29;20760;-77
2022/06/10 03:21:25;;;;;;;6.40;4.43;;;11.10;99.90;;;;;;4951135;28;20224;-76
2022/06/10 03:24:07;;;;;;;8.03;4.33;;;11.00;99.90;;;;;;4955346;29;20208;-75
2022/06/10 03:26:46;;;;;;;9.20;4.27;;;10.90;99.90;;;;;;4950177;28;20225;-75
2022/06/10 03:29:25;;;;;;;6.77;4.80;;;10.90;99.90;;;;;;4950252;28;20198;-77
2022/06/10 03:31:58;;;;;;;7.17;4.80;;;11.00;99.90;;;;;;4949282;28;20251;-77
2022/06/10 03:34:34;;;;;;;8.77;5.40;;;11.20;99.90;;;;;;4951817;28;20200;-75
2022/06/10 03:37:03;;;;;;;8.60;5.50;;;11.20;99.90;;;;;;4951355;28;20193;-76
2022/06/10 03:39:30;;;;;;;5.73;4.50;;;11.10;99.90;;;;;;4962515;28;20200;-82
2022/06/10 03:42:05;;;;;;;6.73;4.80;;;11.00;99.90;;;;;;4950626;28;20258;-78
2022/06/10 03:44:32;;;;;;;6.47;4.60;;;11.00;99.90;;;;;;4950411;29;20673;-80
2022/06/10 03:46:59;;;;;;;7.17;5.00;;;11.00;99.90;;;;;;4948832;28;20197;-78
2022/06/10 03:49:36;;;;;;;8.93;5.87;;;11.00;99.90;;;;;;4951269;28;20609;-81
2022/06/10 03:52:03;;;;;;;5.80;5.17;;;11.20;99.90;;;;;;4949477;28;20690;-80
2022/06/10 03:54:29;;;;;;;8.93;5.43;;;11.20;99.90;;;;;;4950777;28;20675;-83
2022/06/10 03:56:56;;;;;;;6.17;5.07;;;11.10;99.90;;;;;;4949327;28;20201;-82
2022/06/10 03:59:23;;;;;;;8.80;5.17;;;11.10;99.90;;;;;;4948098;28;20666;-83
2022/06/10 04:01:49;;;;;;;6.77;4.90;;;11.10;99.90;;;;;;4949660;28;20232;-82
2022/06/10 04:04:16;;;;;;;10.43;5.50;;;11.20;99.90;;;;;;4948579;28;20198;-82
2022/06/10 04:06:43;;;;;;;7.57;5.30;;;11.30;99.90;;;;;;4951572;29;20228;-81
2022/06/10 04:09:26;;;;;;;7.90;5.20;;;11.50;99.90;;;;;;4949700;28;20193;-78
2022/06/10 04:11:52;;;;;;;6.17;4.80;;;11.60;99.90;;;;;;4949696;28;20217;-81
2022/06/10 04:14:19;;;;;;;6.20;5.00;;;11.50;99.90;;;;;;4951871;28;20208;-79
2022/06/10 04:16:46;;;;;;;7.50;4.77;;;11.40;99.90;;;;;;4950051;29;20202;-80
2022/06/10 04:19:13;;;;;;;7.80;5.63;;;11.40;99.90;;;;;;4949780;28;20666;-79
2022/06/10 04:21:40;;;;;;;6.97;5.20;;;11.50;99.90;;;;;;4944997;28;20597;-78
2022/06/10 04:24:07;;;;;;;8.07;4.70;;;11.50;99.90;;;;;;4947625;28;20201;-77
2022/06/10 04:26:34;;;;;;;7.90;5.10;;;11.60;99.90;;;;;;4951999;28;20221;-77
2022/06/10 04:29:01;;;;;;;12.57;6.40;;;11.60;99.90;;;;;;4948901;29;20207;-77
2022/06/10 04:31:27;;;;;;;10.27;6.00;;;11.80;99.90;;;;;;4950908;28;20709;-75
2022/06/10 04:33:54;;;;;;;7.23;5.30;;;12.00;99.90;;;;;;4948493;28;20739;-76
2022/06/10 04:36:21;;;;;;;7.37;5.43;;;12.00;99.90;;;;;;4944306;28;20198;-75
2022/06/10 04:38:49;;;;;;;7.13;5.60;;;12.00;99.90;;;;;;4950574;28;20204;-75
2022/06/10 04:41:16;;;;;;;11.27;6.10;;;12.00;99.90;;;;;;4951623;28;20331;-76
2022/06/10 04:43:43;;;;;;;7.93;5.20;;;12.10;99.90;;;;;;4947004;28;20202;-75
2022/06/10 04:46:22;;;;;;;7.43;5.43;;;12.20;99.90;;;;;;4951472;28;20219;-76
2022/06/10 04:48:49;;;;;;;9.50;5.00;;;12.20;99.90;;;;;;4927577;28;20620;-76
2022/06/10 04:51:16;;;;;;;7.43;5.07;;;12.30;99.90;;;;;;4932622;29;20217;-75
2022/06/10 04:53:42;;;;;;;6.90;5.27;;;12.30;99.90;;;;;;4931514;29;20208;-75
2022/06/10 04:56:09;;;;;;;8.67;5.50;;;12.40;99.90;;;;;;4932859;29;20585;-76
2022/06/10 04:58:36;;;;;;;10.57;5.93;;;12.40;99.90;;;;;;4931274;29;20681;-75
2022/06/10 05:01:02;;;;;;;8.40;5.57;;;12.50;99.90;;;;;;4929908;29;20220;-76
2022/06/10 05:03:29;;;;;;;9.57;5.97;;;12.60;99.90;;;;;;4934755;29;20198;-75
2022/06/10 05:05:56;;;;;;;8.43;5.33;;;12.70;99.90;;;;;;4935652;29;20222;-76
2022/06/10 05:08:22;;;;;;;7.07;5.47;;;12.80;99.90;;;;;;4937769;29;20197;-77
2022/06/10 05:10:50;;;;;;;9.03;6.20;;;12.90;99.90;;;;;;4934067;28;20221;-75
2022/06/10 05:13:17;;;;;;;8.63;6.07;;;12.90;99.90;;;;;;4935946;29;20547;-75
2022/06/10 05:15:44;;;;;;;7.53;5.60;;;13.00;99.90;;;;;;4936993;28;20207;-76
2022/06/10 05:18:16;;;;;;;7.73;5.13;;;13.10;99.90;;;;;;4935071;29;20213;-75
2022/06/10 05:20:43;;;;;;;6.90;5.10;;;13.20;99.90;;;;;;4927153;29;20234;-75
2022/06/10 05:23:12;;;;;;;10.03;6.10;;;13.40;99.90;;;;;;4933570;29;20213;-74
2022/06/10 05:25:39;;;;;;;9.37;6.23;;;13.50;99.90;;;;;;4930229;29;20225;-75
2022/06/10 05:28:06;;;;;;;7.20;5.57;;;13.80;99.90;;;;;;4935206;29;20637;-74
2022/06/10 05:30:34;;;;;;;10.97;5.80;;;14.00;99.90;;;;;;4923712;29;20223;-74
2022/06/10 05:33:02;;;;;;;7.63;5.33;;;14.30;99.90;;;;;;4931664;29;20206;-75
2022/06/10 05:35:30;;;;;;;10.93;4.57;;;14.40;99.90;;;;;;4933216;29;20580;-76
2022/06/10 05:37:57;;;;;;;6.07;4.73;;;14.40;99.90;;;;;;4932049;29;20678;-74
2022/06/10 05:40:28;;;;;;;6.23;4.53;;;14.50;99.90;;;;;;4929005;29;20706;-78
2022/06/10 05:42:55;;;;;;;5.63;4.10;;;14.50;99.90;;;;;;4954333;28;20209;-74
2022/06/10 05:45:23;;;;;;;7.90;4.37;;;14.60;99.90;;;;;;4928272;29;20264;-74
2022/06/10 05:47:56;;;;;;;7.93;4.60;;;14.60;99.90;;;;;;4936073;29;20642;-75
2022/06/10 05:50:43;;;;;;;7.00;4.50;;;14.80;99.90;;;;;;4925993;29;20246;-77
2022/06/10 05:53:12;;;;;;;8.00;4.13;;;14.80;99.90;;;;;;4937212;29;20202;-74
2022/06/10 05:55:39;;;;;;;5.50;3.53;;;14.80;99.90;;;;;;4942341;28;20203;-75
2022/06/10 05:58:08;;;;;;;5.30;3.27;;;14.70;99.90;;;;;;4935217;29;20203;-73
2022/06/10 06:00:34;;;;;;;6.50;3.70;;;14.80;99.90;;;;;;4930059;29;20227;-75
2022/06/10 06:03:01;;;;;;;5.60;3.33;;;14.90;99.90;;;;;;4933308;29;20278;-74
2022/06/10 06:05:29;;;;;;;4.70;3.10;;;15.00;99.90;;;;;;4933706;29;20282;-74
2022/06/10 06:07:56;;;;;;;5.33;3.43;;;15.10;99.90;;;;;;4932394;29;20588;-73
2022/06/10 06:10:26;;;;;;;4.67;3.40;;;15.20;99.90;;;;;;4928694;29;20482;-74
2022/06/10 06:12:53;;;;;;;5.57;3.30;;;15.30;99.90;;;;;;4929177;29;20248;-74
2022/06/10 06:15:20;;;;;;;3.63;3.13;;;15.40;99.90;;;;;;4931755;29;20199;-75
2022/06/10 06:17:50;;;;;;;5.13;2.97;;;15.40;99.90;;;;;;4930284;29;20353;-75
2022/06/10 06:20:17;;;;;;;4.97;3.10;;;15.50;99.90;;;;;;4932607;29;20547;-75
2022/06/10 06:22:44;;;;;;;8.57;3.30;;;15.80;99.90;;;;;;4931835;29;20210;-75
2022/06/10 06:25:15;;;;;;;4.50;2.63;;;15.90;99.90;;;;;;4929560;29;20206;-76
2022/06/10 06:27:43;;;;;;;4.10;2.90;;;16.00;99.90;;;;;;4930511;29;20227;-77
2022/06/10 06:30:30;;;;;;;3.27;2.83;;;16.10;99.90;;;;;;4933768;29;20195;-75
2022/06/10 06:33:01;;;;;;;5.83;3.27;;;16.20;99.90;;;;;;4930427;29;20199;-76
2022/06/10 06:35:28;;;;;;;4.55;3.33;;;16.10;99.90;;;;;;4932806;29;20770;-75
2022/06/10 06:37:55;;;;;;;4.83;2.93;;;16.00;99.90;;;;;;4933044;29;20210;-77
2022/06/10 06:40:22;;;;;;;3.80;3.10;;;16.10;99.90;;;;;;4926755;29;20634;-75
2022/06/10 06:42:50;;;;;;;3.80;3.03;;;16.20;99.90;;;;;;4923832;29;20195;-74
2022/06/10 06:45:19;;;;;;;7.23;2.90;;;16.30;99.90;;;;;;4924534;29;20199;-75
2022/06/10 06:47:51;;;;;;;3.37;2.53;;;16.40;99.90;;;;;;4935303;29;20199;-73
2022/06/10 06:50:25;;;;;;;3.33;2.63;;;16.40;99.90;;;;;;4940823;28;20230;-76
2022/06/10 06:52:53;;;;;;;4.90;2.93;;;16.60;99.90;;;;;;4932404;28;20418;-75
2022/06/10 06:55:25;;;;;;;3.83;2.67;;;16.70;99.90;;;;;;4931773;28;20220;-75
2022/06/10 06:57:52;;;;;;;4.27;3.10;;;17.00;99.90;;;;;;4934940;29;20199;-74
2022/06/10 07:00:21;;;;;;;6.93;2.60;;;17.20;99.90;;;;;;4919231;28;20215;-77
2022/06/10 07:02:48;;;;;;;6.63;3.00;;;17.60;99.90;;;;;;4926598;29;20203;-75
2022/06/10 07:05:14;;;;;;;4.90;3.00;;;17.90;99.90;;;;;;4926301;29;20234;-76
2022/06/10 07:07:42;;;;;;;4.67;3.10;;;18.60;99.90;;;;;;4925279;29;20218;-76
2022/06/10 07:10:11;;;;;;;4.43;2.60;;;19.40;99.90;;;;;;4926883;29;21204;-74
2022/06/10 07:12:38;;;;;;;3.47;2.58;;;20.60;99.90;;;;;;4952564;28;20195;-74
2022/06/10 07:15:06;;;;;;;4.35;2.50;;;21.70;99.90;;;;;;4925010;29;20195;-73
2022/06/10 07:17:32;;;;;;;4.47;2.65;;;22.20;99.90;;;;;;4931803;28;20270;-76
2022/06/10 07:20:00;;;;;;;3.47;2.10;;;22.60;99.90;;;;;;4929356;29;20285;-74
2022/06/10 07:22:27;;;;;;;4.20;2.35;;;23.10;99.90;;;;;;4929707;29;20211;-73
2022/06/10 07:24:54;;;;;;;4.35;3.30;;;23.70;99.90;;;;;;4931053;29;20210;-71
2022/06/10 07:27:21;;;;;;;3.63;2.90;;;23.80;99.90;;;;;;4935023;29;20713;-71
2022/06/10 07:30:01;;;;;;;6.38;2.55;;;23.80;99.90;;;;;;4928395;29;20286;-72
2022/06/10 07:32:27;;;;;;;6.30;2.47;;;23.80;99.90;;;;;;4926557;29;20215;-71
2022/06/10 07:34:54;;;;;;;4.10;2.40;;;24.20;99.90;;;;;;4930637;29;20597;-72
2022/06/10 07:37:21;;;;;;;6.20;2.72;;;24.40;99.90;;;;;;4929831;29;20299;-72
2022/06/10 07:39:47;;;;;;;4.03;2.50;;;24.50;99.90;;;;;;4932437;29;20206;-71
2022/06/10 07:42:14;;;;;;;3.13;2.47;;;24.50;99.90;;;;;;4924091;29;20230;-72
2022/06/10 07:44:40;;;;;;;3.42;2.80;;;24.60;99.90;;;;;;4931189;29;20202;-72
2022/06/10 07:47:11;;;;;;;4.72;2.40;;;24.50;99.90;;;;;;4924976;29;20219;-74
2022/06/10 07:49:38;;;;;;;3.63;2.60;;;24.10;99.90;;;;;;4924015;29;20199;-74
2022/06/10 07:52:06;;;;;;;6.13;2.45;;;24.00;99.90;;;;;;4931526;29;20215;-75
2022/06/10 07:54:34;;;;;;;4.72;2.60;;;24.00;99.90;;;;;;4924723;29;20210;-74
2022/06/10 07:57:01;;;;;;;4.78;2.72;;;24.10;99.90;;;;;;4928653;29;20209;-74
2022/06/10 07:59:28;;;;;;;3.05;2.20;;;24.10;99.90;;;;;;4928660;28;20199;-75
2022/06/10 08:01:54;;;;;;;3.88;2.50;;;24.30;99.90;;;;;;4934124;29;20249;-74
2022/06/10 08:04:22;;;;;;;4.93;2.60;;;24.30;99.90;;;;;;4929220;28;20199;-75
2022/06/10 08:06:50;;;;;;;3.55;2.30;;;24.30;99.90;;;;;;4927848;29;20226;-77
2022/06/10 08:09:20;;;;;;;3.55;2.50;;;24.20;99.90;;;;;;4929017;29;20611;-74
2022/06/10 08:11:49;;;;;;;4.25;2.40;;;24.30;99.90;;;;;;4935979;28;20702;-74
2022/06/10 08:14:15;;;;;;;4.60;2.55;;;24.10;99.90;;;;;;4926406;28;20835;-74
2022/06/10 08:16:42;;;;;;;3.92;2.90;;;23.80;99.90;;;;;;4934230;29;20199;-75
2022/06/10 08:19:09;;;;;;;4.43;3.03;;;23.70;99.90;;;;;;4927361;29;21095;-75
2022/06/10 08:24:21;;;;;;;3.95;2.65;;;23.40;99.90;;;;;;4924516;29;20196;-75
2022/06/10 08:26:48;;;;;;;3.17;2.45;;;23.70;99.90;;;;;;4931594;29;20218;-74
2022/06/10 08:29:18;;;;;;;6.45;2.75;;;23.70;99.90;;;;;;4930221;29;20195;-76
2022/06/10 08:31:45;;;;;;;4.47;2.47;;;23.70;99.90;;;;;;4927909;29;20308;-74
2022/06/10 08:34:11;;;;;;;3.95;2.97;;;23.30;99.90;;;;;;4921217;29;20573;-73
2022/06/10 08:36:38;;;;;;;5.03;2.63;;;23.30;99.90;;;;;;4926576;29;20210;-73
2022/06/10 08:39:05;;;;;;;4.15;2.45;;;23.40;99.90;;;;;;4926602;29;20210;-73
2022/06/10 08:41:57;;;;;;;3.70;2.30;;;23.50;99.90;;;;;;4922765;29;20274;-75
2022/06/10 08:44:34;;;;;;;5.25;2.80;;;23.60;99.90;;;;;;4923295;29;20206;-74
2022/06/10 08:47:21;;;;;;;3.95;2.60;;;23.50;99.90;;;;;;4923768;29;20219;-75
2022/06/10 08:50:16;;;;;;;5.80;2.70;;;23.00;99.90;;;;;;4925044;29;20211;-72
2022/06/10 08:53:20;;;;;;;4.38;2.50;;;22.50;99.90;;;;;;4927415;29;20206;-75
2022/06/10 08:56:06;;;;;;;4.18;2.65;;;22.60;99.90;;;;;;4926776;29;20195;-74
2022/06/10 08:59:00;;;;;;;3.33;2.30;;;22.90;99.90;;;;;;4924001;29;20194;-73
2022/06/10 09:01:29;;;;;;;4.13;2.30;;;22.90;99.90;;;;;;4924213;29;20622;-74
2022/06/10 09:04:03;;;;;;;2.92;2.30;;;23.10;99.90;;;;;;4924935;29;21810;-74
2022/06/10 09:06:39;;;;;;;3.72;2.45;;;23.40;99.90;;;;;;4927500;29;20219;-76
2022/06/10 09:09:10;;;;;;;3.22;2.28;;;23.40;99.90;;;;;;4924520;29;20571;-75
2022/06/10 09:11:40;;;;;;;3.55;2.10;;;23.00;99.90;;;;;;4924923;29;20325;-74
2022/06/10 09:14:17;;;;;;;4.75;2.20;;;22.90;99.90;;;;;;4933914;29;20667;-73
2022/06/10 09:17:09;;;;;;;3.72;2.15;;;22.80;99.90;;;;;;4926175;29;20494;-75
2022/06/10 09:19:44;;;;;;;4.38;2.20;;;23.00;99.90;;;;;;4926555;29;20698;-75
2022/06/10 09:22:38;;;;;;;4.80;1.80;;;22.90;99.90;;;;;;4939964;29;20237;-75
2022/06/10 09:25:38;;;;;;;5.57;2.20;;;23.10;99.90;;;;;;4928551;29;20703;-74
2022/06/10 09:28:05;;;;;;;2.92;2.25;;;23.40;99.90;;;;;;4930077;29;20219;-77
2022/06/10 09:30:59;;;;;;;3.45;2.10;;;23.40;99.90;;;;;;4924799;29;20230;-74
2022/06/10 09:33:40;;;;;;;4.00;2.00;;;23.70;99.90;;;;;;4930019;29;20577;-75
2022/06/10 09:36:16;;;;;;;4.75;1.98;;;23.10;99.90;;;;;;4931459;29;20203;-75
2022/06/10 09:39:03;;;;;;;6.18;2.28;;;22.90;99.90;;;;;;4924447;29;20210;-75
2022/06/10 09:41:58;;;;;;;3.95;2.28;;;23.00;99.90;;;;;;4921583;29;20222;-76
2022/06/10 09:44:46;;;;;;;3.55;1.90;;;23.10;99.90;;;;;;4928544;29;20200;-74
2022/06/10 09:47:18;;;;;;;3.47;1.90;;;23.30;99.90;;;;;;4923197;29;20226;-74
2022/06/10 09:50:13;;;;;;;3.42;2.00;;;23.40;99.90;;;;;;4922664;29;20199;-74
2022/06/10 09:53:08;;;;;;;3.15;1.90;;;23.10;99.90;;;;;;4927880;29;20203;-73
2022/06/10 09:55:50;;;;;;;2.80;1.92;;;22.90;99.90;;;;;;4926991;29;20207;-74
2022/06/10 09:58:26;;;;;;;3.95;2.17;;;22.80;99.90;;;;;;4928576;29;20221;-75
2022/06/10 10:01:02;;;;;;;3.95;2.13;;;22.90;99.90;;;;;;4925519;29;20699;-73
2022/06/10 10:03:56;;;;;;;3.38;2.05;;;23.10;99.90;;;;;;4935593;29;20317;-74
2022/06/10 10:06:38;;;;;;;3.80;2.10;;;23.50;99.90;;;;;;4937587;29;20225;-76
2022/06/10 10:09:05;;;;;;;2.63;2.15;;;23.70;99.90;;;;;;4931570;29;20203;-79
2022/06/10 10:11:37;;;;;;;6.05;1.92;;;23.70;99.90;;;;;;4935426;28;20220;-75
2022/06/10 10:14:30;;;;;;;2.88;2.15;;;23.60;99.90;;;;;;4936152;29;20202;-74
2022/06/10 10:17:33;;;;;;;6.93;2.15;;;23.70;99.90;;;;;;4927120;29;20717;-75
2022/06/10 10:20:17;;;;;;;4.28;1.90;;;23.20;99.90;;;;;;4927344;29;20217;-75
2022/06/10 10:22:47;;;;;;;5.35;2.42;;;23.20;99.90;;;;;;4925526;29;20223;-75
2022/06/10 10:25:18;;;;;;;3.67;1.88;;;23.40;99.90;;;;;;4924667;29;20202;-74
2022/06/10 10:27:46;;;;;;;6.78;2.00;;;23.70;99.90;;;;;;4935079;29;20219;-75
2022/06/10 10:30:16;;;;;;;2.33;1.70;;;24.00;99.90;;;;;;4930452;29;20690;-73
2022/06/10 10:32:49;;;;;;;2.85;1.77;;;24.00;99.90;;;;;;4928295;29;20207;-74
2022/06/10 10:35:21;;;;;;;3.20;1.80;;;23.90;99.90;;;;;;4937103;29;20202;-79
2022/06/10 10:37:58;;;;;;;3.42;1.58;;;24.10;99.90;;;;;;4933304;29;20278;-78
2022/06/10 10:40:40;;;;;;;3.63;1.80;;;24.40;99.90;;;;;;4926561;29;20616;-75
2022/06/10 10:43:24;;;;;;;7.15;1.58;;;24.70;99.90;;;;;;4920589;29;20226;-77
2022/06/10 10:46:00;;;;;;;1.95;1.40;;;25.10;99.90;;;;;;4924272;29;20680;-76
2022/06/10 10:48:47;;;;;;;4.90;1.98;;;25.20;99.90;;;;;;4923141;29;20252;-76
2022/06/10 10:51:14;;;;;;;3.83;1.67;;;25.50;99.90;;;;;;4933883;29;20219;-73
2022/06/10 10:54:16;;;;;;;3.15;2.00;;;25.50;99.90;;;;;;4923947;29;20198;-75
2022/06/10 10:56:47;;;;;;;4.47;1.65;;;25.80;99.90;;;;;;4937591;29;20206;-76
2022/06/10 10:59:37;;;;;;;2.78;1.65;;;25.90;99.90;;;;;;4935421;29;20199;-77
2022/06/10 11:02:40;;;;;;;2.75;1.70;;;26.00;99.90;;;;;;4929270;29;20219;-75
2022/06/10 11:05:23;;;;;;;2.95;1.92;;;26.10;99.90;;;;;;4926162;29;21794;-76
2022/06/10 11:08:08;;;;;;;5.50;1.88;;;25.60;99.90;;;;;;4932658;29;20313;-75
2022/06/10 11:11:00;;;;;;;4.07;2.00;;;25.20;99.90;;;;;;4930565;29;20696;-74
2022/06/10 11:13:50;;;;;;;3.55;1.63;;;25.20;99.90;;;;;;4929889;29;20200;-75
2022/06/10 11:16:26;;;;;;;4.30;1.63;;;25.40;99.90;;;;;;4927938;29;20563;-75
2022/06/10 11:19:15;;;;;;;2.72;1.50;;;25.80;99.90;;;;;;4923718;29;20199;-74
2022/06/10 11:21:50;;;;;;;3.70;1.55;;;25.50;99.90;;;;;;4941071;29;20218;-75
2022/06/10 11:24:22;;;;;;;2.55;1.63;;;25.30;99.90;;;;;;4930789;29;20624;-74
2022/06/10 11:26:53;;;;;;;3.58;1.67;;;25.20;99.90;;;;;;4928847;29;20234;-74
2022/06/10 11:29:20;;;;;;;3.13;1.83;;;25.00;99.90;;;;;;4932136;29;20191;-74
2022/06/10 11:31:49;;;;;;;2.42;1.50;;;24.70;99.90;;;;;;4930572;29;20219;-74
2022/06/10 11:34:27;;;;;;;3.17;1.63;;;24.60;99.90;;;;;;4933003;29;20204;-76
2022/06/10 11:36:54;;;;;;;3.33;1.75;;;24.90;99.90;;;;;;4927697;29;20207;-75
2022/06/10 11:39:33;;;;;;;1.85;1.52;;;24.90;99.90;;;;;;4931232;29;20226;-75
2022/06/10 11:42:14;;;;;;;3.45;1.67;;;25.20;99.90;;;;;;4930641;29;20219;-75
2022/06/10 11:44:48;;;;;;;4.95;1.80;;;25.40;99.90;;;;;;4927964;29;20250;-75
2022/06/10 11:47:41;;;;;;;2.20;1.40;;;25.00;99.90;;;;;;4927367;29;20607;-75
2022/06/10 11:50:20;;;;;;;2.10;1.42;;;25.10;99.90;;;;;;4926376;29;20200;-75
2022/06/10 11:53:00;;;;;;;1.98;1.48;;;25.00;99.90;;;;;;4930826;29;20195;-75
2022/06/10 11:55:31;;;;;;;3.08;1.50;;;25.20;99.90;;;;;;4926665;29;20615;-74
2022/06/10 12:00:55;;;;;;;3.78;1.48;;;25.50;99.90;;;;;;4930226;29;20226;-75
2022/06/10 12:03:45;;;;;;;4.05;1.73;;;25.40;99.90;;;;;;4929628;29;20194;-75
2022/06/10 12:06:22;;;;;;;5.32;1.60;;;25.30;99.90;;;;;;4928546;29;20217;-74
2022/06/10 12:09:15;;;;;;;2.88;1.65;;;25.20;99.90;;;;;;4926834;29;20222;-74
2022/06/10 12:11:50;;;;;;;2.28;1.60;;;25.20;99.90;;;;;;4929431;29;20233;-76
2022/06/10 12:14:27;;;;;;;2.45;1.52;;;25.50;99.90;;;;;;4929659;29;20194;-76
2022/06/10 12:17:22;;;;;;;6.03;1.90;;;25.80;99.90;;;;;;4927038;29;20210;-75
2022/06/10 12:19:57;;;;;;;3.63;1.55;;;25.70;99.90;;;;;;4919081;29;20198;-76
2022/06/10 12:22:27;;;;;;;3.70;1.70;;;25.80;99.90;;;;;;4935984;29;20237;-75
2022/06/10 12:24:55;;;;;;;3.42;1.80;;;25.70;99.90;;;;;;4927026;29;20222;-74
2022/06/10 12:27:33;;;;;;;2.60;1.30;;;25.60;99.90;;;;;;4933311;28;20219;-77
2022/06/10 12:30:11;;;;;;;3.55;1.60;;;25.80;99.90;;;;;;4933255;29;20711;-75
2022/06/10 12:32:44;;;;;;;3.08;1.35;;;25.90;99.90;;;;;;4933042;29;20202;-74
2022/06/10 12:35:22;;;;;;;2.53;1.38;;;26.30;99.90;;;;;;4930221;29;20750;-74
2022/06/10 12:38:16;;;;;;;2.60;1.30;;;26.60;99.90;;;;;;4937983;29;20217;-74
2022/06/10 12:40:48;;;;;;;3.03;1.40;;;26.90;99.90;;;;;;4933627;29;20625;-74
2022/06/10 12:43:23;;;;;;;3.50;1.45;;;27.30;99.90;;;;;;4926832;29;20211;-77
2022/06/10 12:45:57;;;;;;;2.03;1.30;;;27.30;99.90;;;;;;4933873;29;20210;-74
2022/06/10 12:48:31;;;;;;;2.92;1.50;;;27.20;99.90;;;;;;4932384;29;20695;-75
2022/06/10 12:51:03;;;;;;;4.88;1.65;;;27.10;99.90;;;;;;4928873;29;20279;-73
2022/06/10 12:53:53;;;;;;;2.60;1.48;;;27.10;99.90;;;;;;4933678;29;20195;-78
2022/06/10 12:56:37;;;;;;;2.42;1.50;;;26.90;99.90;;;;;;4932352;29;20227;-76
2022/06/10 12:59:06;;;;;;;4.35;1.35;;;26.80;99.90;;;;;;4932587;29;20577;-77
2022/06/10 13:01:33;;;;;;;2.35;1.30;;;27.20;99.90;;;;;;4930514;29;20230;-77
2022/06/10 13:04:03;;;;;;;1.42;1.23;;;27.70;99.90;;;;;;4931095;29;20201;-75
2022/06/10 13:06:42;;;;;;;2.80;1.45;;;27.50;99.90;;;;;;4936419;29;20609;-75
2022/06/10 13:09:12;;;;;;;3.35;1.25;;;27.50;99.90;;;;;;4929692;29;20226;-74
2022/06/10 13:11:46;;;;;;;2.03;1.30;;;27.30;99.90;;;;;;4932264;29;20707;-74
2022/06/10 13:14:19;;;;;;;1.98;1.50;;;27.00;99.90;;;;;;4927984;29;20694;-74
2022/06/10 13:17:14;;;;;;;3.30;1.33;;;27.00;99.90;;;;;;4932956;29;20209;-78
2022/06/10 13:19:51;;;;;;;3.60;1.52;;;26.90;99.90;;;;;;4928919;29;20265;-74
2022/06/10 13:22:21;;;;;;;3.35;1.50;;;27.00;99.90;;;;;;4928932;29;20226;-73
2022/06/10 13:24:54;;;;;;;1.83;1.30;;;26.80;99.90;;;;;;4931172;29;20235;-74
2022/06/10 13:27:26;;;;;;;3.33;1.48;;;26.90;99.90;;;;;;4931467;29;20219;-76
2022/06/10 13:29:55;;;;;;;2.83;1.20;;;26.80;99.90;;;;;;4932694;29;20206;-77
2022/06/10 13:32:23;;;;;;;3.38;1.33;;;26.90;99.90;;;;;;4931355;28;20269;-74